createdAt,value
2018-12-13T00:01:07.613Z,4.00
2018-12-13T00:03:35.748Z,3.97
2018-12-13T00:06:03.976Z,3.94
2018-12-13T00:08:32.213Z,3.90
2018-12-13T00:11:00.364Z,3.88
2018-12-13T00:13:28.505Z,3.87
2018-12-13T00:15:56.736Z,3.79
2018-12-13T00:18:24.904Z,3.74
2018-12-13T00:20:53.192Z,3.69
2018-12-13T00:23:21.351Z,3.69
2018-12-13T00:25:49.640Z,3.69
2018-12-13T00:28:17.800Z,3.67
2018-12-13T00:30:45.964Z,3.69
2018-12-13T00:33:14.096Z,3.73
2018-12-13T00:35:42.258Z,3.74
2018-12-13T00:38:10.408Z,3.79
2018-12-13T00:40:38.592Z,3.82
2018-12-13T00:43:06.760Z,3.86
2018-12-13T00:45:34.936Z,3.83
2018-12-13T00:48:03.109Z,3.82
2018-12-13T00:50:31.289Z,3.79
2018-12-13T00:52:59.524Z,3.80
2018-12-13T00:55:27.860Z,3.77
2018-12-13T00:57:56.108Z,3.75
2018-12-13T01:00:24.272Z,3.71
2018-12-13T01:02:52.460Z,3.66
2018-12-13T01:05:20.732Z,3.62
2018-12-13T01:07:48.954Z,3.59
2018-12-13T01:10:17.093Z,3.57
2018-12-13T01:12:45.252Z,3.56
2018-12-13T01:15:13.549Z,3.54
2018-12-13T01:17:41.824Z,3.53
2018-12-13T01:20:10.057Z,3.51
2018-12-13T01:22:38.380Z,3.52
2018-12-13T01:25:06.652Z,3.53
2018-12-13T01:27:34.804Z,3.54
2018-12-13T01:30:03.132Z,3.49
2018-12-13T01:32:31.282Z,3.45
2018-12-13T01:34:59.424Z,3.43
2018-12-13T01:37:27.576Z,3.43
2018-12-13T01:39:55.714Z,3.41
2018-12-13T01:42:23.867Z,3.38
2018-12-13T01:44:52.012Z,3.39
2018-12-13T01:47:20.268Z,3.33
2018-12-13T01:49:48.417Z,3.31
2018-12-13T01:52:16.576Z,3.26
2018-12-13T01:54:44.716Z,3.24
2018-12-13T01:57:12.929Z,3.21
2018-12-13T01:59:41.101Z,3.18
2018-12-13T02:02:09.284Z,3.17
2018-12-13T02:04:37.448Z,3.16
2018-12-13T02:07:05.680Z,3.13
2018-12-13T02:09:34.829Z,3.08
2018-12-13T02:12:03.213Z,3.06
2018-12-13T02:14:31.453Z,3.04
2018-12-13T02:16:59.593Z,3.02
2018-12-13T02:19:27.749Z,3.06
2018-12-13T02:21:55.996Z,3.00
2018-12-13T02:24:24.192Z,3.04
2018-12-13T02:26:52.456Z,2.98
2018-12-13T02:29:20.608Z,2.99
2018-12-13T02:31:48.853Z,3.04
2018-12-13T02:34:17.207Z,3.03
2018-12-13T02:36:45.456Z,3.00
2018-12-13T02:39:13.762Z,3.00
2018-12-13T02:41:41.901Z,2.96
2018-12-13T02:44:10.135Z,2.93
2018-12-13T02:46:38.281Z,2.87
2018-12-13T02:49:08.877Z,2.85
2018-12-13T02:51:37.187Z,2.83
2018-12-13T02:54:05.676Z,2.76
2018-12-13T02:56:33.821Z,2.74
2018-12-13T02:59:02.131Z,2.73
2018-12-13T03:01:30.406Z,2.74
2018-12-13T03:03:58.640Z,2.75
2018-12-13T03:06:26.952Z,2.74
2018-12-13T03:08:55.113Z,2.76
2018-12-13T03:11:23.302Z,2.73
2018-12-13T03:13:51.442Z,2.75
2018-12-13T03:16:19.762Z,2.86
2018-12-13T03:18:47.909Z,2.82
2018-12-13T03:21:16.141Z,2.88
2018-12-13T03:23:44.312Z,2.92
2018-12-13T03:26:12.652Z,2.94
2018-12-13T03:28:40.828Z,3.02
2018-12-13T03:31:08.993Z,3.05
2018-12-13T03:33:37.167Z,3.16
2018-12-13T03:36:05.411Z,3.16
2018-12-13T03:38:33.544Z,3.19
2018-12-13T03:41:01.711Z,3.20
2018-12-13T03:43:29.948Z,3.25
2018-12-13T03:45:58.369Z,3.25
2018-12-13T03:48:26.525Z,3.27
2018-12-13T03:50:54.711Z,3.29
2018-12-13T03:53:22.869Z,3.27
2018-12-13T03:55:51.064Z,3.26
2018-12-13T03:58:19.236Z,3.27
2018-12-13T04:00:47.545Z,3.29
2018-12-13T04:03:15.780Z,3.29
2018-12-13T04:05:44.044Z,3.30
2018-12-13T04:08:12.184Z,3.25
2018-12-13T04:10:40.328Z,3.19
2018-12-13T04:13:08.472Z,3.22
2018-12-13T04:15:36.700Z,3.18
2018-12-13T04:18:05.047Z,3.16
2018-12-13T04:20:33.218Z,3.18
2018-12-13T04:23:01.523Z,3.15
2018-12-13T04:25:29.973Z,3.10
2018-12-13T04:27:58.248Z,3.05
2018-12-13T04:30:26.412Z,3.02
2018-12-13T04:32:54.690Z,2.99
2018-12-13T04:35:22.874Z,2.99
2018-12-13T04:37:51.052Z,2.97
2018-12-13T04:40:19.218Z,2.95
2018-12-13T04:42:47.507Z,2.93
2018-12-13T04:45:15.789Z,2.94
2018-12-13T04:47:44.048Z,2.91
2018-12-13T04:50:12.224Z,2.90
2018-12-13T04:52:40.412Z,2.92
2018-12-13T04:55:08.572Z,2.89
2018-12-13T04:57:36.756Z,2.87
2018-12-13T05:00:05.862Z,2.82
2018-12-13T05:02:34.149Z,2.79
2018-12-13T05:05:02.331Z,2.77
2018-12-13T05:07:30.483Z,2.75
2018-12-13T05:09:58.645Z,2.77
2018-12-13T05:12:26.836Z,2.73
2018-12-13T05:14:55.117Z,2.71
2018-12-13T05:17:23.619Z,2.70
2018-12-13T05:19:51.828Z,2.68
2018-12-13T05:22:20.268Z,2.68
2018-12-13T05:24:48.413Z,2.68
2018-12-13T05:27:16.596Z,2.67
2018-12-13T05:29:44.736Z,2.65
2018-12-13T05:32:12.977Z,2.65
2018-12-13T05:34:41.122Z,2.63
2018-12-13T05:37:09.304Z,2.60
2018-12-13T05:39:37.462Z,2.60
2018-12-13T05:42:05.696Z,2.62
2018-12-13T05:44:33.852Z,2.61
2018-12-13T05:47:02.006Z,2.57
2018-12-13T05:49:30.165Z,2.56
2018-12-13T05:51:58.441Z,2.58
2018-12-13T05:54:26.626Z,2.55
2018-12-13T05:56:54.784Z,2.53
2018-12-13T05:59:22.936Z,2.52
2018-12-13T06:01:51.140Z,2.49
2018-12-13T06:04:19.332Z,2.48
2018-12-13T06:06:47.979Z,2.46
2018-12-13T06:09:16.391Z,2.45
2018-12-13T06:11:44.594Z,2.45
2018-12-13T06:14:12.749Z,2.44
2018-12-13T06:16:40.946Z,2.39
2018-12-13T06:19:09.097Z,2.39
2018-12-13T06:21:37.364Z,2.37
2018-12-13T06:24:05.753Z,2.38
2018-12-13T06:26:33.922Z,2.37
2018-12-13T06:29:02.131Z,2.35
2018-12-13T06:31:30.368Z,2.34
2018-12-13T06:33:58.654Z,2.35
2018-12-13T06:36:26.820Z,2.33
2018-12-13T06:38:55.017Z,2.34
2018-12-13T06:41:23.217Z,2.31
2018-12-13T06:43:52.354Z,2.29
2018-12-13T06:46:20.767Z,2.26
2018-12-13T06:48:49.017Z,2.23
2018-12-13T06:51:17.188Z,2.20
2018-12-13T06:53:45.336Z,2.19
2018-12-13T06:56:13.492Z,2.18
2018-12-13T06:58:41.635Z,2.17
2018-12-13T07:01:09.908Z,2.15
2018-12-13T07:03:38.176Z,2.17
2018-12-13T07:06:06.581Z,2.14
2018-12-13T07:08:34.817Z,2.14
2018-12-13T07:11:03.237Z,2.14
2018-12-13T07:13:31.385Z,2.12
2018-12-13T07:15:59.540Z,2.15
2018-12-13T07:18:27.949Z,2.10
2018-12-13T07:20:56.104Z,2.08
2018-12-13T07:23:24.249Z,2.06
2018-12-13T07:25:52.483Z,2.08
2018-12-13T07:28:20.636Z,2.06
2018-12-13T07:30:48.831Z,2.06
2018-12-13T07:33:16.986Z,2.07
2018-12-13T07:35:45.177Z,2.07
2018-12-13T07:38:14.465Z,2.07
2018-12-13T07:40:42.957Z,2.08
2018-12-13T07:43:11.164Z,2.08
2018-12-13T07:45:39.332Z,2.09
2018-12-13T07:48:07.480Z,2.11
2018-12-13T07:50:35.652Z,2.10
2018-12-13T07:53:03.887Z,2.12
2018-12-13T07:55:32.228Z,2.14
2018-12-13T07:58:00.530Z,2.14
2018-12-13T08:00:28.669Z,2.14
2018-12-13T08:02:56.841Z,2.16
2018-12-13T08:05:24.981Z,2.16
2018-12-13T08:07:53.189Z,2.16
2018-12-13T08:10:21.394Z,2.17
2018-12-13T08:12:49.548Z,2.17
2018-12-13T08:15:17.950Z,2.21
2018-12-13T08:17:46.700Z,2.24
2018-12-13T08:20:16.052Z,2.27
2018-12-13T08:22:44.410Z,2.29
2018-12-13T08:25:12.621Z,2.34
2018-12-13T08:27:40.922Z,2.18
2018-12-13T08:30:09.429Z,2.40
2018-12-13T08:32:37.655Z,2.53
2018-12-13T08:35:06.192Z,2.53
2018-12-13T08:37:34.396Z,2.54
2018-12-13T08:40:02.568Z,2.55
2018-12-13T08:42:30.812Z,2.55
2018-12-13T08:44:58.952Z,2.54
2018-12-13T08:47:27.168Z,2.54
2018-12-13T08:49:55.424Z,2.52
2018-12-13T08:52:23.636Z,2.52
2018-12-13T08:54:51.885Z,2.57
2018-12-13T08:57:20.153Z,2.54
2018-12-13T08:59:48.448Z,2.57
2018-12-13T09:02:16.712Z,2.60
2018-12-13T09:04:44.896Z,2.63
2018-12-13T09:07:13.057Z,2.66
2018-12-13T09:09:41.360Z,2.75
2018-12-13T09:12:12.689Z,2.93
2018-12-13T09:14:40.909Z,3.06
2018-12-13T09:17:09.073Z,3.13
2018-12-13T09:19:37.229Z,3.30
2018-12-13T09:22:05.492Z,3.36
2018-12-13T09:24:33.777Z,3.53
2018-12-13T09:27:02.660Z,3.57
2018-12-13T09:29:30.939Z,3.55
2018-12-13T09:31:59.108Z,3.62
2018-12-13T09:34:27.428Z,3.66
2018-12-13T09:36:55.605Z,3.63
2018-12-13T09:39:23.756Z,3.63
2018-12-13T09:41:51.950Z,3.72
2018-12-13T09:44:20.104Z,3.89
2018-12-13T09:46:48.917Z,3.91
2018-12-13T09:49:17.072Z,4.01
2018-12-13T09:51:45.232Z,4.11
2018-12-13T09:54:13.665Z,4.25
2018-12-13T09:56:41.905Z,4.19
2018-12-13T09:59:10.177Z,4.20
2018-12-13T10:01:38.340Z,4.26
2018-12-13T10:04:06.616Z,4.38
2018-12-13T10:06:34.841Z,4.42
2018-12-13T10:09:04.309Z,4.33
2018-12-13T10:11:32.572Z,4.24
2018-12-13T10:14:00.741Z,4.19
2018-12-13T10:16:29.044Z,4.33
2018-12-13T10:18:57.281Z,4.22
2018-12-13T10:21:25.585Z,4.06
2018-12-13T10:23:53.808Z,4.04
2018-12-13T10:26:22.058Z,4.06
2018-12-13T10:28:50.400Z,4.05
2018-12-13T10:31:18.708Z,4.07
2018-12-13T10:33:46.941Z,4.16
2018-12-13T10:36:15.363Z,4.12
2018-12-13T10:38:43.620Z,4.16
2018-12-13T10:41:11.789Z,4.23
2018-12-13T10:43:39.934Z,4.32
2018-12-13T10:46:08.156Z,4.37
2018-12-13T10:48:36.393Z,4.32
2018-12-13T10:51:04.564Z,4.29
2018-12-13T10:53:32.711Z,4.20
2018-12-13T10:56:01.038Z,4.18
2018-12-13T10:58:29.229Z,4.27
2018-12-13T11:01:02.779Z,4.35
2018-12-13T11:03:35.885Z,4.37
2018-12-13T11:08:59.432Z,4.37
2018-12-13T11:11:24.308Z,4.37
2018-12-13T11:13:52.476Z,4.34
2018-12-13T11:16:20.659Z,4.33
2018-12-13T11:18:48.944Z,4.29
2018-12-13T11:21:17.513Z,4.23
2018-12-13T11:23:45.997Z,4.19
2018-12-13T11:26:14.274Z,4.21
2018-12-13T11:29:55.865Z,4.23
2018-12-13T11:32:24.483Z,4.16
2018-12-13T11:34:52.661Z,4.27
2018-12-13T11:37:20.880Z,4.45
2018-12-13T11:39:49.037Z,4.65
2018-12-13T11:42:17.268Z,4.74
2018-12-13T11:44:45.519Z,4.85
2018-12-13T11:47:13.743Z,4.92
2018-12-13T11:49:42.015Z,4.93
2018-12-13T11:52:10.257Z,5.01
2018-12-13T11:54:43.384Z,5.01
2018-12-13T11:57:12.053Z,4.97
2018-12-13T11:59:40.379Z,4.92
2018-12-13T12:02:08.632Z,4.82
2018-12-13T12:04:36.988Z,4.79
2018-12-13T12:07:05.491Z,4.73
2018-12-13T12:09:33.744Z,4.73
2018-12-13T12:12:02.116Z,4.68
2018-12-13T12:14:30.406Z,4.76
2018-12-13T12:16:58.681Z,4.70
2018-12-13T12:19:27.603Z,4.80
2018-12-13T12:21:55.820Z,4.71
2018-12-13T12:24:24.125Z,4.74
2018-12-13T12:26:52.400Z,4.64
2018-12-13T12:29:20.808Z,4.63
2018-12-13T12:31:48.960Z,4.66
2018-12-13T12:34:17.136Z,4.66
2018-12-13T12:36:45.399Z,4.65
2018-12-13T12:39:18.535Z,4.67
2018-12-13T12:41:43.863Z,4.74
2018-12-13T12:44:12.081Z,4.65
2018-12-13T12:46:40.281Z,4.68
2018-12-13T12:49:08.592Z,4.76
2018-12-13T12:51:36.879Z,4.79
2018-12-13T12:54:05.267Z,4.83
2018-12-13T12:56:33.468Z,4.86
2018-12-13T12:59:01.772Z,4.89
2018-12-13T13:01:29.986Z,4.89
2018-12-13T13:03:58.307Z,4.86
2018-12-13T13:06:26.608Z,4.97
2018-12-13T13:08:54.912Z,4.83
2018-12-13T13:11:23.226Z,4.81
2018-12-13T13:13:51.412Z,4.84
2018-12-13T13:16:19.726Z,4.87
2018-12-13T13:18:47.923Z,4.86
2018-12-13T13:21:16.332Z,4.92
2018-12-13T13:23:46.769Z,5.03
2018-12-13T13:26:15.046Z,5.10
2018-12-13T13:28:43.243Z,5.08
2018-12-13T13:31:11.586Z,5.03
2018-12-13T13:33:39.842Z,4.97
2018-12-13T13:36:08.437Z,4.98
2018-12-13T13:38:36.753Z,4.98
2018-12-13T13:41:05.062Z,4.95
2018-12-13T13:43:33.516Z,5.05
2018-12-13T13:46:01.792Z,4.93
2018-12-13T13:48:30.096Z,4.94
2018-12-13T13:53:31.351Z,4.96
2018-12-13T13:55:59.806Z,5.04
2018-12-13T13:58:28.037Z,5.06
2018-12-13T14:00:56.277Z,4.95
2018-12-13T14:03:24.494Z,5.05
2018-12-13T14:05:52.692Z,5.09
2018-12-13T14:08:20.929Z,5.01
2018-12-13T14:10:49.113Z,5.01
2018-12-13T14:13:17.412Z,4.96
2018-12-13T14:15:46.463Z,4.96
2018-12-13T14:18:14.631Z,4.98
2018-12-13T14:20:43.796Z,4.90
2018-12-13T14:23:12.068Z,4.85
2018-12-13T14:25:40.579Z,4.82
2018-12-13T14:28:08.748Z,4.74
2018-12-13T14:30:37.004Z,4.65
2018-12-13T14:33:05.276Z,4.65
2018-12-13T14:35:33.513Z,4.58
2018-12-13T14:38:01.863Z,4.52
2018-12-13T14:40:30.100Z,4.56
2018-12-13T14:42:58.400Z,4.52
2018-12-13T14:45:26.591Z,4.52
2018-12-13T14:47:54.906Z,4.58
2018-12-13T14:50:23.076Z,4.59
2018-12-13T14:52:51.317Z,4.56
2018-12-13T14:55:19.567Z,4.65
2018-12-13T14:57:47.749Z,4.59
2018-12-13T15:00:16.216Z,4.61
2018-12-13T15:02:44.455Z,4.55
2018-12-13T15:05:13.128Z,4.63
2018-12-13T15:07:41.360Z,4.61
2018-12-13T15:10:09.606Z,4.64
2018-12-13T15:12:37.948Z,4.69
2018-12-13T15:15:06.614Z,4.73
2018-12-13T15:17:35.387Z,4.74
2018-12-13T15:20:04.147Z,4.82
2018-12-13T15:22:32.461Z,4.73
2018-12-13T15:25:00.626Z,4.76
2018-12-13T15:27:28.868Z,4.76
2018-12-13T15:29:57.077Z,4.72
2018-12-13T15:32:25.472Z,4.71
2018-12-13T15:34:53.773Z,4.71
2018-12-13T15:37:22.029Z,4.75
2018-12-13T15:39:57.063Z,4.81
2018-12-13T15:43:24.041Z,4.85
2018-12-13T15:45:52.277Z,4.71
2018-12-13T15:48:20.511Z,4.67
2018-12-13T15:50:48.799Z,4.72
2018-12-13T15:53:17.126Z,4.84
2018-12-13T15:55:45.387Z,4.76
2018-12-13T15:58:13.787Z,4.78
2018-12-13T16:00:42.004Z,4.86
2018-12-13T16:03:10.288Z,4.81
2018-12-13T16:05:38.620Z,4.86
2018-12-13T16:08:06.800Z,4.88
2018-12-13T16:10:35.064Z,4.86
2018-12-13T16:13:03.253Z,4.88
2018-12-13T16:15:31.625Z,4.93
2018-12-13T16:17:59.841Z,4.99
2018-12-13T16:20:29.203Z,4.95
2018-12-13T16:22:57.371Z,4.97
2018-12-13T16:25:25.644Z,5.02
2018-12-13T16:27:53.901Z,4.95
2018-12-13T16:30:22.460Z,4.97
2018-12-13T16:32:50.640Z,5.04
2018-12-13T16:35:19.849Z,4.98
2018-12-13T16:37:48.051Z,4.97
2018-12-13T16:40:16.354Z,4.97
2018-12-13T16:42:44.591Z,5.05
2018-12-13T16:45:12.773Z,4.90
2018-12-13T16:47:41.057Z,4.91
2018-12-13T16:50:09.251Z,4.93
2018-12-13T16:52:37.517Z,4.92
2018-12-13T16:55:06.220Z,4.98
2018-12-13T16:57:34.468Z,4.96
2018-12-13T17:00:02.979Z,4.91
2018-12-13T17:02:31.162Z,4.91
2018-12-13T17:05:03.335Z,4.95
2018-12-13T17:07:29.536Z,4.91
2018-12-13T17:09:57.717Z,4.92
2018-12-13T17:12:26.500Z,4.94
2018-12-13T17:14:54.671Z,5.09
2018-12-13T17:17:22.844Z,5.02
2018-12-13T17:19:51.023Z,5.00
2018-12-13T17:22:19.292Z,4.99
2018-12-13T17:24:47.576Z,4.98
2018-12-13T17:27:15.739Z,4.95
2018-12-13T17:29:43.932Z,4.93
2018-12-13T17:32:12.092Z,4.98
2018-12-13T17:34:40.276Z,5.01
2018-12-13T17:37:08.447Z,4.97
2018-12-13T17:39:36.727Z,4.99
2018-12-13T17:42:05.122Z,5.13
2018-12-13T17:44:33.324Z,5.16
2018-12-13T17:47:01.555Z,5.07
2018-12-13T17:49:29.727Z,5.04
2018-12-13T17:51:58.020Z,5.09
2018-12-13T17:54:26.280Z,5.04
2018-12-13T17:56:54.611Z,5.07
2018-12-13T17:59:22.959Z,5.10
2018-12-13T18:01:51.228Z,5.05
2018-12-13T18:04:19.399Z,5.06
2018-12-13T18:06:47.607Z,5.07
2018-12-13T18:09:15.940Z,5.11
2018-12-13T18:11:44.123Z,5.11
2018-12-13T18:14:12.295Z,5.20
2018-12-13T18:16:43.391Z,5.16
2018-12-13T18:19:10.787Z,5.14
2018-12-13T18:21:38.991Z,5.17
2018-12-13T18:24:07.240Z,5.17
2018-12-13T18:26:35.441Z,5.17
2018-12-13T18:29:03.917Z,5.29
2018-12-13T18:31:32.191Z,5.20
2018-12-13T18:34:00.455Z,5.18
2018-12-13T18:36:29.107Z,5.22
2018-12-13T18:38:57.443Z,5.18
2018-12-13T18:41:25.816Z,5.21
2018-12-13T18:43:54.156Z,5.25
2018-12-13T18:46:22.432Z,5.20
2018-12-13T18:48:50.735Z,5.28
2018-12-13T18:51:19.005Z,5.22
2018-12-13T18:53:47.183Z,5.22
2018-12-13T18:56:15.455Z,5.29
2018-12-13T18:58:43.639Z,5.29
2018-12-13T19:01:11.822Z,5.29
2018-12-13T19:03:40.106Z,5.30
2018-12-13T19:06:08.343Z,5.33
2018-12-13T19:08:36.737Z,5.33
2018-12-13T19:11:04.907Z,5.34
2018-12-13T19:13:33.180Z,5.34
2018-12-13T19:16:01.356Z,5.38
2018-12-13T19:18:29.558Z,5.34
2018-12-13T19:20:57.783Z,5.31
2018-12-13T19:23:26.627Z,5.34
2018-12-13T19:25:54.887Z,5.32
2018-12-13T19:28:23.145Z,5.32
2018-12-13T19:30:51.339Z,5.35
2018-12-13T19:33:19.524Z,5.38
2018-12-13T19:35:47.695Z,5.41
2018-12-13T19:38:16.023Z,5.42
2018-12-13T19:40:48.332Z,5.47
2018-12-13T19:43:14.577Z,5.46
2018-12-13T19:45:42.820Z,5.48
2018-12-13T19:48:11.092Z,5.48
2018-12-13T19:50:39.564Z,5.20
2018-12-13T19:53:08.068Z,5.55
2018-12-13T19:55:36.356Z,5.45
2018-12-13T19:58:04.539Z,5.42
2018-12-13T20:00:32.821Z,5.44
2018-12-13T20:03:00.996Z,5.50
2018-12-13T20:05:29.176Z,5.54
2018-12-13T20:07:57.351Z,5.42
2018-12-13T20:10:25.535Z,5.39
2018-12-13T20:12:53.803Z,5.37
2018-12-13T20:15:24.174Z,5.28
2018-12-13T20:17:52.224Z,5.25
2018-12-13T20:20:20.408Z,5.30
2018-12-13T20:22:48.577Z,5.40
2018-12-13T20:25:16.795Z,5.37
2018-12-13T20:27:44.964Z,5.32
2018-12-13T20:30:13.244Z,5.32
2018-12-13T20:32:41.421Z,5.33
2018-12-13T20:35:09.692Z,5.49
2018-12-13T20:37:37.859Z,5.34
2018-12-13T20:40:06.244Z,5.35
2018-12-13T20:42:34.502Z,5.31
2018-12-13T20:45:02.852Z,5.42
2018-12-13T20:47:31.036Z,5.36
2018-12-13T20:49:59.303Z,5.36
2018-12-13T20:52:27.471Z,5.35
2018-12-13T20:54:55.684Z,5.33
2018-12-13T20:57:23.859Z,5.32
2018-12-13T20:59:52.044Z,5.35
2018-12-13T21:02:20.213Z,5.39
2018-12-13T21:04:48.502Z,5.36
2018-12-13T21:07:22.072Z,5.35
2018-12-13T21:09:50.316Z,5.39
2018-12-13T21:12:18.664Z,5.41
2018-12-13T21:14:47.008Z,5.29
2018-12-13T21:17:15.269Z,5.30
2018-12-13T21:19:43.432Z,5.34
2018-12-13T21:22:11.605Z,5.39
2018-12-13T21:24:39.859Z,5.44
2018-12-13T21:27:08.030Z,5.47
2018-12-13T21:29:36.272Z,5.51
2018-12-13T21:32:04.619Z,5.48
2018-12-13T21:34:32.776Z,5.49
2018-12-13T21:37:01.024Z,5.53
2018-12-13T21:39:29.241Z,5.40
2018-12-13T21:41:57.524Z,5.35
2018-12-13T21:44:25.801Z,5.30
2018-12-13T21:46:54.120Z,5.34
2018-12-13T21:49:22.343Z,5.42
2018-12-13T21:51:50.544Z,5.40
2018-12-13T21:54:18.848Z,5.41
2018-12-13T21:56:47.325Z,5.43
2018-12-13T21:59:15.519Z,5.41
2018-12-13T22:01:43.967Z,5.48
2018-12-13T22:04:12.226Z,5.50
2018-12-13T22:06:40.403Z,5.56
2018-12-13T22:09:08.847Z,5.44
2018-12-13T22:11:37.156Z,5.49
2018-12-13T22:14:05.392Z,5.46
2018-12-13T22:16:33.595Z,5.46
2018-12-13T22:19:01.840Z,5.52
2018-12-13T22:21:30.104Z,5.47
2018-12-13T22:23:58.279Z,5.46
2018-12-13T22:26:26.536Z,5.50
2018-12-13T22:28:54.757Z,5.54
2018-12-13T22:31:23.077Z,5.41
2018-12-13T22:33:51.276Z,5.40
2018-12-13T22:36:19.444Z,5.31
2018-12-13T22:38:47.959Z,5.31
2018-12-13T22:41:16.169Z,5.35
2018-12-13T22:43:44.368Z,5.36
2018-12-13T22:46:12.665Z,5.36
2018-12-13T22:48:40.908Z,5.32
2018-12-13T22:51:09.181Z,5.33
2018-12-13T22:53:37.566Z,5.43
2018-12-13T22:56:05.727Z,5.38
2018-12-13T22:58:33.911Z,5.36
2018-12-13T23:01:02.185Z,5.44
2018-12-13T23:03:30.591Z,5.32
2018-12-13T23:05:58.745Z,5.34
2018-12-13T23:08:27.012Z,5.35
2018-12-13T23:10:55.680Z,5.38
2018-12-13T23:13:23.839Z,5.33
2018-12-13T23:15:52.086Z,5.27
2018-12-13T23:18:20.324Z,5.24
2018-12-13T23:20:48.494Z,5.22
2018-12-13T23:23:16.671Z,5.18
2018-12-13T23:25:44.860Z,5.17
2018-12-13T23:28:13.125Z,5.21
2018-12-13T23:30:41.384Z,5.17
2018-12-13T23:33:09.579Z,5.15
2018-12-13T23:35:37.743Z,5.13
2018-12-13T23:38:05.904Z,5.08
2018-12-13T23:40:34.213Z,5.14
2018-12-13T23:43:02.501Z,5.14
2018-12-13T23:45:30.788Z,5.08
2018-12-13T23:47:59.040Z,5.11
2018-12-13T23:50:27.335Z,5.18
2018-12-13T23:52:55.588Z,5.20
2018-12-13T23:55:23.780Z,5.17
2018-12-13T23:57:51.956Z,5.15
